Time;durP1;ratioP1;P1;durP2;ratioP2;P2;SDS_P1;SDS_P2;PMS_P1;PMS_P2;Temp;Humidity;BMP_temperature;BMP_pressure;BME280_temperature;BME280_humidity;BME280_pressure;Samples;Min_cycle;Max_cycle;Signal;HPM_P1;HPM_P2
2022/06/23 00:08:08;;;;;;;22.17;11.98;;;;;;;;;;4328905;33;20032;-75
2022/06/23 00:10:47;;;;;;;13.40;10.68;;;;;;;;;;4329183;33;20480;-75
2022/06/23 00:13:32;;;;;;;19.73;10.85;;;;;;;;;;4328695;33;20027;-75
2022/06/23 00:15:58;;;;;;;17.15;10.43;;;;;;;;;;4357883;32;20391;-75
2022/06/23 00:18:25;;;;;;;21.65;11.02;;;;;;;;;;4405559;32;20053;-75
2022/06/23 00:20:50;;;;;;;16.98;9.82;;;;;;;;;;4406567;32;20100;-75
2022/06/23 00:23:15;;;;;;;20.33;11.07;;;;;;;;;;4405387;32;20038;-76
2022/06/23 00:25:47;;;;;;;15.13;10.55;;;;;;;;;;4405843;32;20451;-75
2022/06/23 00:28:18;;;;;;;16.70;10.13;;;;;;;;;;4375517;32;20039;-75
2022/06/23 00:30:43;;;;;;;12.43;10.25;;;;;;;;;;4376029;32;20070;-75
2022/06/23 00:33:19;;;;;;;16.48;9.95;;;;;;;;;;4378309;32;20023;-75
2022/06/23 00:35:46;;;;;;;12.55;10.15;;;;;;;;;;4382590;32;20342;-75
2022/06/23 00:38:17;;;;;;;16.92;10.52;;;;;;;;;;4393052;32;20023;-75
2022/06/23 00:40:43;;;;;;;18.20;11.43;;;;;;;;;;4393765;32;20091;-75
2022/06/23 00:43:10;;;;;;;13.13;9.75;;;;;;;;;;4392656;32;20031;-75
2022/06/23 00:45:40;;;;;;;12.37;9.50;;;;;;;;;;4393848;32;20030;-75
2022/06/23 00:48:44;;;;;;;18.27;9.70;;;;;;;;;;4408459;32;20022;-75
2022/06/23 00:51:19;;;;;;;13.20;10.93;;;;;;;;;;4366426;32;20113;-75
2022/06/23 00:53:56;;;;;;;14.82;10.70;;;;;;;;;;4393331;32;20022;-75
2022/06/23 00:56:40;;;;;;;17.37;10.25;;;;;;;;;;4393473;32;20035;-75
2022/06/23 00:59:11;;;;;;;16.23;10.40;;;;;;;;;;4379547;32;20057;-75
2022/06/23 01:01:45;;;;;;;17.58;10.85;;;;;;;;;;4392447;32;20111;-75
2022/06/23 01:04:17;;;;;;;16.42;9.20;;;;;;;;;;4405808;32;20034;-75
2022/06/23 01:06:46;;;;;;;17.65;11.02;;;;;;;;;;4423308;32;20022;-75
2022/06/23 01:09:30;;;;;;;17.87;10.55;;;;;;;;;;4422958;32;20049;-75
2022/06/23 01:12:00;;;;;;;19.12;11.32;;;;;;;;;;4422024;32;20022;-75
2022/06/23 01:14:25;;;;;;;15.98;10.73;;;;;;;;;;4423257;32;20029;-75
2022/06/23 01:17:14;;;;;;;15.45;11.68;;;;;;;;;;4409278;32;20052;-75
2022/06/23 01:19:46;;;;;;;14.73;10.43;;;;;;;;;;4399438;32;20031;-76
2022/06/23 01:22:19;;;;;;;15.57;10.18;;;;;;;;;;4407693;32;20412;-75
2022/06/23 01:24:54;;;;;;;17.23;10.63;;;;;;;;;;4408136;32;20052;-75
2022/06/23 01:27:25;;;;;;;14.50;11.20;;;;;;;;;;4407948;32;20052;-75
2022/06/23 01:29:53;;;;;;;14.77;9.73;;;;;;;;;;4408573;32;20046;-75
2022/06/23 01:32:23;;;;;;;17.37;10.45;;;;;;;;;;4407916;32;20043;-75
2022/06/23 01:34:49;;;;;;;14.18;10.05;;;;;;;;;;4407232;32;20030;-75
2022/06/23 01:37:30;;;;;;;13.02;8.93;;;;;;;;;;4407452;32;20021;-75
2022/06/23 01:40:05;;;;;;;13.52;9.32;;;;;;;;;;4407583;32;20121;-76
2022/06/23 01:42:39;;;;;;;18.60;10.33;;;;;;;;;;4407228;32;20076;-75
2022/06/23 01:45:23;;;;;;;18.80;12.10;;;;;;;;;;4407580;32;20136;-75
2022/06/23 01:48:06;;;;;;;14.90;10.63;;;;;;;;;;4394333;32;20023;-75
2022/06/23 01:50:37;;;;;;;13.85;9.43;;;;;;;;;;4407530;32;20112;-75
2022/06/23 01:53:13;;;;;;;18.17;10.70;;;;;;;;;;4406844;32;20121;-75
2022/06/23 01:55:58;;;;;;;18.70;11.00;;;;;;;;;;4407234;32;20045;-75
2022/06/23 01:58:25;;;;;;;19.98;10.90;;;;;;;;;;4407720;32;20157;-75
2022/06/23 02:00:53;;;;;;;14.32;11.05;;;;;;;;;;4413114;32;20027;-75
2022/06/23 02:03:20;;;;;;;22.50;10.93;;;;;;;;;;4401941;32;20061;-75
2022/06/23 02:05:45;;;;;;;14.63;10.73;;;;;;;;;;4407300;32;20021;-75
2022/06/23 02:08:30;;;;;;;17.35;10.57;;;;;;;;;;4406788;32;20365;-75
2022/06/23 02:11:06;;;;;;;15.90;10.95;;;;;;;;;;4413178;32;20061;-75
2022/06/23 02:13:32;;;;;;;15.27;10.18;;;;;;;;;;4422584;32;20018;-75
2022/06/23 02:16:26;;;;;;;15.13;9.63;;;;;;;;;;4421861;32;20084;-75
2022/06/23 02:18:58;;;;;;;14.50;9.35;;;;;;;;;;4405429;32;20098;-75
2022/06/23 02:21:46;;;;;;;22.98;11.25;;;;;;;;;;4422425;32;20042;-75
2022/06/23 02:24:32;;;;;;;19.90;10.45;;;;;;;;;;4392680;32;20034;-75
2022/06/23 02:27:02;;;;;;;17.12;10.57;;;;;;;;;;4422293;32;20060;-75
2022/06/23 02:29:40;;;;;;;15.10;11.32;;;;;;;;;;4421620;32;20107;-75
2022/06/23 02:32:24;;;;;;;21.67;11.25;;;;;;;;;;4422547;32;20339;-76
2022/06/23 02:35:08;;;;;;;19.73;11.25;;;;;;;;;;4423239;32;20396;-76
2022/06/23 02:37:49;;;;;;;13.62;10.15;;;;;;;;;;4422269;32;20060;-75
2022/06/23 02:40:17;;;;;;;14.55;10.32;;;;;;;;;;4420940;32;20034;-75
2022/06/23 02:42:42;;;;;;;14.87;10.50;;;;;;;;;;4421448;32;20707;-75
2022/06/23 02:45:20;;;;;;;14.73;11.32;;;;;;;;;;4421453;32;20026;-75
2022/06/23 02:48:04;;;;;;;15.18;10.13;;;;;;;;;;4408257;32;20022;-76
2022/06/23 02:50:48;;;;;;;17.02;10.93;;;;;;;;;;4422469;32;20029;-75
2022/06/23 02:53:22;;;;;;;16.67;11.55;;;;;;;;;;4421343;32;20054;-75
2022/06/23 02:55:50;;;;;;;14.50;10.07;;;;;;;;;;4420854;32;20018;-76
2022/06/23 02:58:15;;;;;;;24.58;11.85;;;;;;;;;;4421381;32;20094;-75
2022/06/23 03:00:41;;;;;;;15.98;11.05;;;;;;;;;;4403441;32;20420;-75
2022/06/23 03:03:18;;;;;;;19.45;11.43;;;;;;;;;;4405695;32;20348;-75
2022/06/23 03:06:02;;;;;;;16.67;10.40;;;;;;;;;;4391719;32;20058;-76
2022/06/23 03:08:36;;;;;;;13.20;10.95;;;;;;;;;;4390734;32;20022;-75
2022/06/23 03:11:03;;;;;;;15.13;11.18;;;;;;;;;;4391512;32;20027;-75
2022/06/23 03:13:36;;;;;;;16.95;10.95;;;;;;;;;;4391798;32;20023;-75
2022/06/23 03:16:20;;;;;;;15.45;10.57;;;;;;;;;;4399258;32;20034;-75
2022/06/23 03:18:54;;;;;;;18.33;11.10;;;;;;;;;;4406428;32;20026;-75
2022/06/23 03:21:30;;;;;;;19.17;11.23;;;;;;;;;;4406135;32;20052;-75
2022/06/23 03:24:03;;;;;;;15.57;10.80;;;;;;;;;;4406911;32;20027;-75
2022/06/23 03:26:43;;;;;;;17.70;11.25;;;;;;;;;;4407727;32;20041;-75
2022/06/23 03:29:18;;;;;;;17.70;11.05;;;;;;;;;;4398843;32;20043;-75
2022/06/23 03:31:52;;;;;;;16.92;12.35;;;;;;;;;;4391297;32;20026;-75
2022/06/23 03:34:22;;;;;;;16.12;11.75;;;;;;;;;;4391716;32;20031;-75
2022/06/23 03:36:55;;;;;;;16.23;10.95;;;;;;;;;;4390864;32;20030;-75
2022/06/23 03:42:17;;;;;;;17.23;11.50;;;;;;;;;;4391186;32;20446;-75
2022/06/23 03:44:48;;;;;;;18.33;12.02;;;;;;;;;;4395488;32;20030;-75
2022/06/23 03:47:24;;;;;;;20.70;12.13;;;;;;;;;;4407120;32;20068;-75
2022/06/23 03:50:00;;;;;;;17.40;11.45;;;;;;;;;;4405950;32;20035;-75
2022/06/23 03:52:44;;;;;;;15.98;10.95;;;;;;;;;;4405880;32;20031;-75
2022/06/23 03:55:17;;;;;;;25.15;13.15;;;;;;;;;;4393564;32;20061;-75
2022/06/23 03:57:46;;;;;;;15.73;10.73;;;;;;;;;;4376922;32;20125;-75
2022/06/23 04:00:14;;;;;;;17.10;12.23;;;;;;;;;;4390714;32;20030;-75
2022/06/23 04:02:45;;;;;;;20.73;11.45;;;;;;;;;;4390807;32;20447;-75
2022/06/23 04:05:23;;;;;;;18.15;11.35;;;;;;;;;;4388848;32;20104;-75
2022/06/23 04:07:48;;;;;;;17.73;11.82;;;;;;;;;;4388174;32;20030;-74
2022/06/23 04:10:22;;;;;;;16.90;11.52;;;;;;;;;;4364449;32;20159;-74
2022/06/23 04:12:51;;;;;;;22.10;13.20;;;;;;;;;;4391212;32;20027;-75
2022/06/23 04:15:22;;;;;;;20.37;12.32;;;;;;;;;;4390985;32;20043;-75
2022/06/23 04:17:50;;;;;;;15.85;11.60;;;;;;;;;;4390687;32;20023;-75
2022/06/23 04:20:20;;;;;;;17.25;11.07;;;;;;;;;;4390515;32;20031;-75
2022/06/23 04:22:47;;;;;;;15.40;10.55;;;;;;;;;;4389793;32;20107;-75
2022/06/23 04:25:17;;;;;;;14.30;10.60;;;;;;;;;;4389472;32;20084;-75
2022/06/23 04:27:48;;;;;;;20.12;11.15;;;;;;;;;;4376124;32;20027;-75
2022/06/23 04:30:26;;;;;;;15.55;11.32;;;;;;;;;;4376710;32;20038;-75
2022/06/23 04:33:01;;;;;;;19.00;11.73;;;;;;;;;;4376551;32;20035;-75
2022/06/23 04:35:32;;;;;;;19.70;12.45;;;;;;;;;;4375702;32;20443;-74
2022/06/23 04:38:04;;;;;;;18.33;10.70;;;;;;;;;;4375465;32;20436;-75
2022/06/23 04:40:32;;;;;;;14.40;10.65;;;;;;;;;;4375027;32;20456;-76
2022/06/23 04:43:05;;;;;;;18.52;11.40;;;;;;;;;;4387733;32;20030;-76
2022/06/23 04:45:39;;;;;;;20.85;10.82;;;;;;;;;;4390210;32;20031;-77
2022/06/23 04:48:09;;;;;;;17.05;10.82;;;;;;;;;;4381671;32;20061;-77
2022/06/23 04:51:07;;;;;;;22.62;11.27;;;;;;;;;;4374839;32;20039;-77
2022/06/23 04:53:37;;;;;;;19.20;11.68;;;;;;;;;;4360075;32;20049;-77
2022/06/23 04:56:07;;;;;;;19.77;10.52;;;;;;;;;;4376324;32;20375;-77
2022/06/23 04:58:34;;;;;;;17.20;10.98;;;;;;;;;;4389382;32;20023;-75
2022/06/23 05:01:00;;;;;;;15.48;10.88;;;;;;;;;;4389990;32;20179;-75
2022/06/23 05:03:33;;;;;;;15.68;10.98;;;;;;;;;;4391415;32;20454;-76
2022/06/23 05:06:03;;;;;;;19.25;11.05;;;;;;;;;;4416033;32;20356;-76
2022/06/23 05:08:31;;;;;;;20.02;10.95;;;;;;;;;;4411287;32;20348;-75
2022/06/23 05:11:09;;;;;;;17.33;11.27;;;;;;;;;;4407602;32;20079;-76
2022/06/23 05:13:44;;;;;;;14.80;10.20;;;;;;;;;;4389999;32;20077;-76
2022/06/23 05:16:12;;;;;;;19.60;11.05;;;;;;;;;;4390919;32;20034;-76
2022/06/23 05:18:48;;;;;;;13.98;10.23;;;;;;;;;;4407471;32;20030;-76
2022/06/23 05:21:13;;;;;;;12.27;9.65;;;;;;;;;;4407626;32;20049;-76
2022/06/23 05:23:59;;;;;;;17.27;10.15;;;;;;;;;;4409720;32;20029;-76
2022/06/23 05:26:24;;;;;;;13.35;10.07;;;;;;;;;;4414299;32;20053;-76
2022/06/23 05:28:52;;;;;;;14.15;9.43;;;;;;;;;;4403735;32;20072;-76
2022/06/23 05:31:21;;;;;;;15.02;10.68;;;;;;;;;;4411445;32;20349;-76
2022/06/23 05:33:47;;;;;;;18.45;11.18;;;;;;;;;;4422199;32;20030;-76
2022/06/23 05:36:16;;;;;;;13.00;10.35;;;;;;;;;;4422675;32;20022;-76
2022/06/23 05:38:44;;;;;;;21.77;10.80;;;;;;;;;;4421668;32;20038;-75
2022/06/23 05:41:39;;;;;;;16.17;11.27;;;;;;;;;;4423221;32;20087;-75
2022/06/23 05:44:07;;;;;;;14.85;10.30;;;;;;;;;;4408844;32;20061;-77
2022/06/23 05:46:33;;;;;;;16.27;11.35;;;;;;;;;;4422109;32;20466;-75
2022/06/23 05:49:04;;;;;;;16.73;11.73;;;;;;;;;;4422133;32;20017;-76
2022/06/23 05:51:36;;;;;;;15.82;9.82;;;;;;;;;;4423317;32;20113;-76
2022/06/23 05:54:11;;;;;;;14.68;9.38;;;;;;;;;;4422756;32;20424;-75
2022/06/23 05:56:49;;;;;;;17.62;9.55;;;;;;;;;;4408058;32;20026;-77
2022/06/23 05:59:50;;;;;;;16.58;10.57;;;;;;;;;;4408128;32;20431;-76
2022/06/23 06:02:41;;;;;;;19.62;10.25;;;;;;;;;;4401178;32;20128;-77
2022/06/23 06:05:14;;;;;;;16.10;9.38;;;;;;;;;;4389772;32;20031;-77
2022/06/23 06:07:43;;;;;;;17.45;11.10;;;;;;;;;;4379394;32;20034;-77
2022/06/23 06:10:15;;;;;;;18.35;10.18;;;;;;;;;;4377718;32;20356;-77
2022/06/23 06:12:41;;;;;;;12.37;9.45;;;;;;;;;;4390352;32;20035;-75
2022/06/23 06:15:16;;;;;;;18.02;10.43;;;;;;;;;;4392007;32;20023;-77
2022/06/23 06:17:43;;;;;;;13.15;9.15;;;;;;;;;;4392720;32;20031;-77
2022/06/23 06:20:09;;;;;;;17.52;8.82;;;;;;;;;;4391228;32;20459;-77
2022/06/23 06:22:39;;;;;;;18.10;11.20;;;;;;;;;;4392684;32;20101;-77
2022/06/23 06:25:06;;;;;;;11.48;9.90;;;;;;;;;;4392906;32;20065;-77
2022/06/23 06:27:32;;;;;;;17.17;10.32;;;;;;;;;;4378057;32;20030;-77
2022/06/23 06:29:57;;;;;;;18.60;10.73;;;;;;;;;;4390080;32;20683;-76
2022/06/23 06:32:22;;;;;;;16.95;10.05;;;;;;;;;;4391557;32;20049;-77
2022/06/23 06:34:50;;;;;;;14.85;9.65;;;;;;;;;;4377993;32;20103;-77
2022/06/23 06:37:16;;;;;;;14.32;9.43;;;;;;;;;;4376756;32;20174;-76
2022/06/23 06:39:54;;;;;;;18.77;10.05;;;;;;;;;;4376131;32;20084;-77
2022/06/23 06:42:22;;;;;;;16.83;8.85;;;;;;;;;;4367508;32;20428;-77
2022/06/23 06:44:48;;;;;;;13.00;9.52;;;;;;;;;;4390481;32;20109;-76
2022/06/23 06:47:28;;;;;;;13.75;9.05;;;;;;;;;;4388691;32;20089;-77
2022/06/23 06:49:54;;;;;;;16.58;9.32;;;;;;;;;;4377277;32;20046;-77
2022/06/23 06:52:19;;;;;;;21.77;9.93;;;;;;;;;;4391656;32;20102;-77
2022/06/23 06:54:51;;;;;;;11.40;8.48;;;;;;;;;;4378329;32;20053;-78
2022/06/23 06:57:23;;;;;;;15.65;9.60;;;;;;;;;;4377069;32;20039;-76
2022/06/23 06:59:57;;;;;;;13.70;8.70;;;;;;;;;;4391130;32;20045;-77
2022/06/23 07:02:24;;;;;;;13.35;9.75;;;;;;;;;;4387936;32;20117;-76
2022/06/23 07:04:54;;;;;;;12.30;9.75;;;;;;;;;;4402562;32;20038;-77
2022/06/23 07:07:23;;;;;;;15.07;9.27;;;;;;;;;;4406102;32;20026;-77
2022/06/23 07:09:51;;;;;;;14.05;9.57;;;;;;;;;;4405873;32;20083;-78
2022/06/23 07:12:39;;;;;;;14.30;9.68;;;;;;;;;;4405765;32;20060;-78
2022/06/23 07:15:11;;;;;;;14.02;9.25;;;;;;;;;;4406518;32;20053;-77
2022/06/23 07:17:46;;;;;;;19.50;10.85;;;;;;;;;;4406407;32;20027;-77
2022/06/23 07:20:19;;;;;;;12.02;9.18;;;;;;;;;;4406251;32;20027;-77
2022/06/23 07:22:52;;;;;;;19.40;9.13;;;;;;;;;;4406220;32;20070;-78
2022/06/23 07:25:23;;;;;;;13.48;9.52;;;;;;;;;;4406089;32;20022;-78
2022/06/23 07:27:57;;;;;;;15.25;9.80;;;;;;;;;;4404333;32;20026;-77
2022/06/23 07:30:25;;;;;;;11.52;8.68;;;;;;;;;;4391946;32;20405;-77
2022/06/23 07:32:57;;;;;;;17.27;8.90;;;;;;;;;;4406046;32;20030;-77
2022/06/23 07:35:27;;;;;;;14.40;8.40;;;;;;;;;;4392328;32;20035;-78
2022/06/23 07:38:15;;;;;;;16.70;9.65;;;;;;;;;;4406561;32;20067;-78
2022/06/23 07:40:48;;;;;;;14.20;9.23;;;;;;;;;;4405034;32;20022;-77
2022/06/23 07:43:19;;;;;;;33.72;13.15;;;;;;;;;;4405777;32;20034;-77
2022/06/23 07:45:53;;;;;;;15.23;10.13;;;;;;;;;;4391576;32;20139;-77
2022/06/23 07:48:19;;;;;;;12.85;9.65;;;;;;;;;;4405814;32;20026;-77
2022/06/23 07:50:44;;;;;;;18.08;9.48;;;;;;;;;;4391587;32;20052;-77
2022/06/23 07:53:14;;;;;;;12.63;8.57;;;;;;;;;;4405267;32;20082;-77
2022/06/23 07:55:41;;;;;;;12.98;9.32;;;;;;;;;;4406558;32;20105;-77
2022/06/23 07:58:07;;;;;;;17.75;9.63;;;;;;;;;;4397845;32;20034;-77
2022/06/23 08:00:34;;;;;;;15.18;8.77;;;;;;;;;;4391680;32;20027;-77
2022/06/23 08:03:03;;;;;;;14.43;8.70;;;;;;;;;;4390705;32;20031;-77
2022/06/23 08:05:32;;;;;;;16.83;9.90;;;;;;;;;;4391706;32;20030;-78
2022/06/23 08:07:58;;;;;;;15.48;9.68;;;;;;;;;;4405185;32;20428;-77
2022/06/23 08:10:26;;;;;;;18.27;9.80;;;;;;;;;;4405858;32;20100;-77
2022/06/23 08:13:11;;;;;;;13.25;9.90;;;;;;;;;;4405547;32;20068;-77
2022/06/23 08:18:46;;;;;;;19.23;9.50;;;;;;;;;;4405702;32;20071;-77
2022/06/23 08:21:14;;;;;;;14.20;9.55;;;;;;;;;;4391335;32;20034;-77
2022/06/23 08:23:42;;;;;;;19.23;11.65;;;;;;;;;;4405526;32;20030;-77
2022/06/23 08:26:10;;;;;;;14.43;10.77;;;;;;;;;;4405465;32;20053;-78
2022/06/23 08:28:35;;;;;;;16.30;11.02;;;;;;;;;;4415252;32;20029;-76
2022/06/23 08:31:02;;;;;;;17.83;11.82;;;;;;;;;;4421157;32;20450;-77
2022/06/23 08:33:28;;;;;;;14.68;9.85;;;;;;;;;;4420439;32;20084;-77
2022/06/23 08:35:56;;;;;;;15.82;10.77;;;;;;;;;;4420293;32;20026;-78
2022/06/23 08:38:26;;;;;;;16.90;11.38;;;;;;;;;;4410693;32;20447;-78
2022/06/23 08:41:07;;;;;;;16.45;11.30;;;;;;;;;;4404206;32;20053;-78
2022/06/23 08:43:52;;;;;;;15.30;11.20;;;;;;;;;;4404874;32;20058;-77
2022/06/23 08:46:27;;;;;;;15.40;10.90;;;;;;;;;;4399520;32;20060;-76
2022/06/23 08:49:02;;;;;;;15.05;10.75;;;;;;;;;;4404991;32;20018;-77
2022/06/23 08:51:27;;;;;;;15.70;11.82;;;;;;;;;;4406173;32;20101;-76
2022/06/23 08:54:07;;;;;;;18.30;11.60;;;;;;;;;;4400212;32;20368;-77
2022/06/23 08:56:59;;;;;;;17.12;11.57;;;;;;;;;;4409080;32;20027;-77
2022/06/23 08:59:35;;;;;;;17.08;11.57;;;;;;;;;;4404590;32;20034;-77
2022/06/23 09:02:09;;;;;;;16.25;11.25;;;;;;;;;;4408283;32;20068;-76
2022/06/23 09:04:41;;;;;;;19.62;11.75;;;;;;;;;;4393696;32;20489;-77
2022/06/23 09:07:30;;;;;;;17.65;11.93;;;;;;;;;;4413739;32;20034;-76
2022/06/23 09:10:10;;;;;;;14.18;11.23;;;;;;;;;;4423017;32;20018;-77
2022/06/23 09:12:50;;;;;;;22.00;11.75;;;;;;;;;;4417352;32;20031;-77
2022/06/23 09:15:33;;;;;;;19.62;13.88;;;;;;;;;;4399822;32;20046;-77
2022/06/23 09:18:17;;;;;;;22.40;13.65;;;;;;;;;;4408655;32;20071;-77
2022/06/23 09:21:08;;;;;;;20.58;12.68;;;;;;;;;;4407620;32;20034;-77
2022/06/23 09:23:50;;;;;;;14.93;12.93;;;;;;;;;;4408157;32;20085;-77
2022/06/23 09:26:20;;;;;;;21.58;13.88;;;;;;;;;;4394318;32;20367;-76
2022/06/23 09:28:51;;;;;;;24.87;14.40;;;;;;;;;;4407302;32;20026;-77
2022/06/23 09:31:19;;;;;;;17.12;13.88;;;;;;;;;;4408969;32;20045;-77
2022/06/23 09:34:03;;;;;;;22.80;13.13;;;;;;;;;;4407229;32;20088;-76
2022/06/23 09:36:47;;;;;;;18.92;13.82;;;;;;;;;;4393774;32;20388;-78
2022/06/23 09:39:26;;;;;;;16.65;13.20;;;;;;;;;;4407545;32;20056;-77
2022/06/23 09:41:58;;;;;;;21.73;13.77;;;;;;;;;;4407772;32;20023;-77
2022/06/23 09:44:26;;;;;;;25.55;14.87;;;;;;;;;;4393500;32;20034;-77
2022/06/23 09:47:27;;;;;;;36.20;15.60;;;;;;;;;;4407602;32;20064;-77
2022/06/23 09:50:11;;;;;;;21.95;13.68;;;;;;;;;;4345867;33;20054;-77
2022/06/23 09:52:55;;;;;;;18.77;13.32;;;;;;;;;;4401955;32;20035;-78
2022/06/23 09:55:29;;;;;;;21.87;15.07;;;;;;;;;;4407329;32;20035;-77
2022/06/23 09:58:18;;;;;;;26.70;14.32;;;;;;;;;;4406546;32;20489;-78
2022/06/23 10:00:55;;;;;;;18.77;13.75;;;;;;;;;;4395908;32;20030;-77
2022/06/23 10:03:39;;;;;;;27.23;14.23;;;;;;;;;;4406148;32;20081;-77
2022/06/23 10:06:18;;;;;;;20.05;12.75;;;;;;;;;;4407300;32;20062;-77
2022/06/23 10:08:53;;;;;;;18.95;13.80;;;;;;;;;;4393105;32;20090;-76
2022/06/23 10:11:25;;;;;;;15.43;12.33;;;;;;;;;;4393134;32;20018;-77
2022/06/23 10:13:56;;;;;;;19.67;13.20;;;;;;;;;;4406895;32;20052;-76
2022/06/23 10:16:46;;;;;;;24.52;12.95;;;;;;;;;;4406968;32;20027;-76
2022/06/23 10:19:23;;;;;;;18.40;12.75;;;;;;;;;;4407006;32;20023;-77
2022/06/23 10:21:56;;;;;;;23.42;11.75;;;;;;;;;;4393301;32;20038;-77
2022/06/23 10:24:41;;;;;;;15.57;11.05;;;;;;;;;;4407470;32;20021;-77
2022/06/23 10:27:25;;;;;;;16.17;10.20;;;;;;;;;;4381891;32;20096;-76
2022/06/23 10:29:58;;;;;;;16.45;10.90;;;;;;;;;;4407454;32;20408;-77
2022/06/23 10:32:36;;;;;;;20.42;12.60;;;;;;;;;;4406955;32;20329;-77
2022/06/23 10:35:20;;;;;;;15.30;9.82;;;;;;;;;;4406785;32;20038;-77
2022/06/23 10:37:49;;;;;;;19.02;10.52;;;;;;;;;;4393199;32;20030;-77
2022/06/23 10:43:30;;;;;;;15.90;9.65;;;;;;;;;;4406722;32;20071;-77
2022/06/23 10:46:10;;;;;;;22.30;9.32;;;;;;;;;;4409509;32;20038;-77
2022/06/23 10:48:57;;;;;;;16.83;9.80;;;;;;;;;;4408824;32;20424;-78
2022/06/23 10:51:32;;;;;;;19.87;9.50;;;;;;;;;;4418781;32;20049;-79
2022/06/23 10:54:10;;;;;;;18.33;9.20;;;;;;;;;;4421369;32;20454;-80
2022/06/23 10:56:50;;;;;;;15.32;8.90;;;;;;;;;;4418273;32;20074;-78
2022/06/23 10:59:34;;;;;;;17.65;9.75;;;;;;;;;;4407141;32;20027;-78
2022/06/23 11:02:18;;;;;;;13.07;9.00;;;;;;;;;;4406152;32;20086;-79
2022/06/23 11:04:50;;;;;;;12.00;7.93;;;;;;;;;;4405541;32;20072;-78
2022/06/23 11:07:18;;;;;;;17.40;8.55;;;;;;;;;;4409301;32;20169;-79
2022/06/23 11:10:02;;;;;;;18.20;9.05;;;;;;;;;;4418545;32;20117;-79
2022/06/23 11:12:41;;;;;;;16.85;9.38;;;;;;;;;;4418509;32;20071;-80
2022/06/23 11:15:11;;;;;;;13.07;9.30;;;;;;;;;;4407175;32;20018;-78
2022/06/23 11:17:55;;;;;;;17.45;9.52;;;;;;;;;;4420931;32;20049;-78
2022/06/23 11:20:27;;;;;;;12.60;8.40;;;;;;;;;;4421093;32;20044;-78
2022/06/23 11:23:01;;;;;;;13.35;6.95;;;;;;;;;;4420910;32;20030;-78
2022/06/23 11:25:39;;;;;;;14.18;7.60;;;;;;;;;;4421815;32;20026;-79
2022/06/23 11:28:10;;;;;;;15.70;8.55;;;;;;;;;;4395568;32;20065;-78
2022/06/23 11:30:55;;;;;;;15.32;8.27;;;;;;;;;;4391637;32;20482;-80
2022/06/23 11:33:29;;;;;;;10.35;6.87;;;;;;;;;;4405585;32;20055;-80
2022/06/23 11:36:10;;;;;;;19.10;8.85;;;;;;;;;;4405991;32;20052;-80
2022/06/23 11:38:42;;;;;;;12.88;7.22;;;;;;;;;;4405798;32;20026;-79
2022/06/23 11:41:19;;;;;;;18.95;8.40;;;;;;;;;;4405619;32;20423;-79
2022/06/23 11:44:03;;;;;;;13.60;7.97;;;;;;;;;;4405950;32;20092;-78
2022/06/23 11:46:35;;;;;;;16.67;8.27;;;;;;;;;;4405597;32;20093;-78
2022/06/23 11:49:04;;;;;;;20.40;7.93;;;;;;;;;;4405921;32;20026;-78
2022/06/23 11:51:32;;;;;;;21.08;8.98;;;;;;;;;;4405194;32;20026;-78
2022/06/23 11:54:06;;;;;;;15.32;7.90;;;;;;;;;;4405921;32;20022;-78
2022/06/23 11:56:44;;;;;;;21.35;6.97;;;;;;;;;;4404244;32;20053;-78
2022/06/23 11:59:28;;;;;;;12.82;7.15;;;;;;;;;;4405508;32;20034;-79
2022/06/23 12:01:54;;;;;;;12.50;7.07;;;;;;;;;;4405405;32;20057;-80
2022/06/23 12:04:38;;;;;;;9.15;5.43;;;;;;;;;;4404808;32;20030;-80
2022/06/23 12:07:13;;;;;;;11.93;5.55;;;;;;;;;;4405071;32;20026;-78
2022/06/23 12:09:38;;;;;;;18.50;6.70;;;;;;;;;;4405986;32;20101;-78
2022/06/23 12:12:07;;;;;;;13.23;6.15;;;;;;;;;;4405276;32;20206;-79
2022/06/23 12:14:34;;;;;;;15.23;6.07;;;;;;;;;;4405826;32;20030;-79
2022/06/23 12:17:10;;;;;;;14.25;6.35;;;;;;;;;;4390959;32;20029;-80
2022/06/23 12:19:38;;;;;;;16.17;5.07;;;;;;;;;;4405412;32;20069;-79
2022/06/23 12:22:09;;;;;;;18.10;5.70;;;;;;;;;;4391868;32;20030;-79
2022/06/23 12:24:42;;;;;;;15.30;5.65;;;;;;;;;;4406349;32;20485;-80
2022/06/23 12:27:22;;;;;;;14.43;5.93;;;;;;;;;;4410265;32;20029;-80
2022/06/23 12:29:55;;;;;;;11.50;5.55;;;;;;;;;;4410102;32;20057;-80
2022/06/23 12:32:44;;;;;;;10.13;5.70;;;;;;;;;;4410205;32;20022;-78
2022/06/23 12:35:13;;;;;;;11.05;6.20;;;;;;;;;;4410463;32;20030;-81
2022/06/23 12:37:48;;;;;;;17.12;6.00;;;;;;;;;;4409892;32;20030;-79
2022/06/23 12:40:16;;;;;;;14.93;5.53;;;;;;;;;;4410070;32;20035;-80
2022/06/23 12:42:55;;;;;;;12.48;5.80;;;;;;;;;;4410515;32;20030;-79
2022/06/23 12:45:40;;;;;;;9.70;4.87;;;;;;;;;;4410092;32;20089;-79
2022/06/23 12:48:33;;;;;;;15.05;7.03;;;;;;;;;;4411117;32;20128;-80
2022/06/23 12:51:06;;;;;;;16.35;6.95;;;;;;;;;;4410190;32;20400;-80
2022/06/23 12:53:44;;;;;;;11.98;5.10;;;;;;;;;;4410571;32;20053;-79
2022/06/23 12:56:09;;;;;;;13.35;5.00;;;;;;;;;;4407304;32;20064;-79
2022/06/23 12:58:43;;;;;;;14.82;6.30;;;;;;;;;;4409813;32;20058;-79
2022/06/23 13:01:08;;;;;;;13.98;5.78;;;;;;;;;;4410138;32;20030;-78
2022/06/23 13:03:45;;;;;;;13.93;5.20;;;;;;;;;;4410409;32;20038;-79
2022/06/23 13:06:29;;;;;;;16.52;6.85;;;;;;;;;;4409599;32;20084;-79
2022/06/23 13:09:02;;;;;;;15.45;5.43;;;;;;;;;;4396709;32;20074;-78
2022/06/23 13:11:46;;;;;;;14.23;4.93;;;;;;;;;;4410383;32;20099;-79
2022/06/23 13:14:35;;;;;;;11.43;5.10;;;;;;;;;;4409860;32;20371;-78
2022/06/23 13:17:03;;;;;;;16.15;6.03;;;;;;;;;;4401425;32;20483;-79
2022/06/23 13:19:33;;;;;;;11.95;5.40;;;;;;;;;;4408638;32;20106;-78
2022/06/23 13:22:02;;;;;;;10.85;4.57;;;;;;;;;;4409432;32;20056;-78
2022/06/23 13:24:31;;;;;;;14.68;4.62;;;;;;;;;;4409670;32;20034;-78
2022/06/23 13:26:56;;;;;;;16.45;4.70;;;;;;;;;;4386465;32;20030;-79
2022/06/23 13:29:31;;;;;;;10.23;4.80;;;;;;;;;;4409841;32;20065;-79
2022/06/23 13:32:15;;;;;;;17.52;4.87;;;;;;;;;;4410176;32;20515;-78
2022/06/23 13:34:49;;;;;;;12.18;4.78;;;;;;;;;;4409682;32;20465;-79
2022/06/23 13:37:17;;;;;;;9.40;5.03;;;;;;;;;;4408653;32;20030;-79
2022/06/23 13:39:46;;;;;;;11.90;4.80;;;;;;;;;;4407343;32;20027;-79
2022/06/23 13:42:15;;;;;;;7.68;4.28;;;;;;;;;;4407651;32;20071;-78
2022/06/23 13:44:47;;;;;;;13.73;4.55;;;;;;;;;;4407786;32;20034;-78
2022/06/23 13:47:21;;;;;;;9.77;4.03;;;;;;;;;;4407495;32;20026;-79
2022/06/23 13:49:49;;;;;;;7.60;4.30;;;;;;;;;;4407090;32;20026;-78
2022/06/23 13:52:19;;;;;;;9.13;3.95;;;;;;;;;;4406826;32;20065;-80
2022/06/23 13:54:49;;;;;;;9.40;3.95;;;;;;;;;;4406770;32;20085;-79
2022/06/23 13:57:17;;;;;;;11.32;4.05;;;;;;;;;;4407064;32;20031;-78
2022/06/23 13:59:42;;;;;;;9.25;3.75;;;;;;;;;;4402425;32;20026;-78
2022/06/23 14:02:26;;;;;;;11.23;4.10;;;;;;;;;;4392424;32;20485;-79
2022/06/23 14:04:59;;;;;;;6.68;3.95;;;;;;;;;;4404077;32;20076;-78
2022/06/23 14:07:28;;;;;;;10.15;3.83;;;;;;;;;;4408268;32;20568;-79
2022/06/23 14:10:01;;;;;;;7.55;3.40;;;;;;;;;;4407172;32;20022;-78
2022/06/23 14:12:32;;;;;;;10.30;4.28;;;;;;;;;;4418402;32;20029;-79
2022/06/23 14:15:18;;;;;;;8.52;3.65;;;;;;;;;;4410775;32;20094;-79
2022/06/23 14:17:48;;;;;;;7.97;3.87;;;;;;;;;;4405292;32;20061;-79
2022/06/23 14:20:30;;;;;;;6.53;3.47;;;;;;;;;;4392157;32;20030;-77
2022/06/23 14:23:03;;;;;;;9.77;4.07;;;;;;;;;;4413233;32;20107;-77
2022/06/23 14:25:38;;;;;;;11.38;4.22;;;;;;;;;;4393523;32;20065;-78
2022/06/23 14:28:03;;;;;;;;;;;;;;;;;;4411673;32;20083;-78
2022/06/23 14:30:44;;;;;;;8.80;3.42;;;;;;;;;;4392727;32;19942;-78
2022/06/23 14:33:09;;;;;;;9.57;3.78;;;;;;;;;;4409959;32;20075;-77
2022/06/23 14:35:52;;;;;;;9.40;3.78;;;;;;;;;;4405994;32;20085;-78
2022/06/23 14:38:29;;;;;;;13.38;4.28;;;;;;;;;;4392912;32;20030;-77
2022/06/23 14:40:54;;;;;;;9.98;3.92;;;;;;;;;;4406472;32;20069;-78
2022/06/23 14:43:58;;;;;;;9.07;3.72;;;;;;;;;;4407870;32;20045;-78
2022/06/23 14:46:26;;;;;;;11.52;4.37;;;;;;;;;;4329696;33;20040;-78
2022/06/23 14:48:54;;;;;;;9.38;3.45;;;;;;;;;;4329525;33;20035;-79
2022/06/23 14:51:29;;;;;;;8.93;3.90;;;;;;;;;;4366594;32;20534;-78
2022/06/23 14:54:14;;;;;;;8.57;3.28;;;;;;;;;;4407285;32;20018;-77
2022/06/23 14:56:41;;;;;;;;;;;;;;;;;;4398236;32;20026;-78
2022/06/23 14:59:07;;;;;;;6.10;3.50;;;;;;;;;;4377356;32;20316;-79
2022/06/23 15:01:51;;;;;;;7.28;3.65;;;;;;;;;;4377104;32;20076;-74
2022/06/23 15:04:23;;;;;;;8.18;3.78;;;;;;;;;;4390407;32;20042;-77
2022/06/23 15:07:08;;;;;;;8.38;3.40;;;;;;;;;;4377018;32;20038;-78
2022/06/23 15:09:55;;;;;;;7.85;3.80;;;;;;;;;;4390864;32;20023;-79
2022/06/23 15:12:32;;;;;;;8.27;2.95;;;;;;;;;;4391246;32;20479;-78
2022/06/23 15:15:13;;;;;;;7.95;3.35;;;;;;;;;;4391156;32;20080;-78
2022/06/23 15:17:41;;;;;;;7.68;3.33;;;;;;;;;;4391359;32;20401;-77
2022/06/23 15:20:13;;;;;;;4.95;3.30;;;;;;;;;;4391352;32;20060;-78
2022/06/23 15:23:11;;;;;;;6.62;3.47;;;;;;;;;;4391170;32;20046;-79